sensor_id;sensor_type;location;lat;lon;timestamp;P1;durP1;ratioP1;P2;durP2;ratioP2
38937;SDS011;24727;51.974;20.868;2023-04-10T00:02:23;35.97;;;20.90;;
38937;SDS011;24727;51.974;20.868;2023-04-10T00:04:48;38.85;;;23.20;;
38937;SDS011;24727;51.974;20.868;2023-04-10T00:07:14;34.42;;;22.50;;
38937;SDS011;24727;51.974;20.868;2023-04-10T00:09:42;36.45;;;22.35;;
38937;SDS011;24727;51.974;20.868;2023-04-10T00:12:08;37.03;;;21.27;;
38937;SDS011;24727;51.974;20.868;2023-04-10T00:14:36;29.55;;;19.85;;
38937;SDS011;24727;51.974;20.868;2023-04-10T00:17:02;29.13;;;17.60;;
38937;SDS011;24727;51.974;20.868;2023-04-10T00:19:28;27.55;;;16.23;;
38937;SDS011;24727;51.974;20.868;2023-04-10T00:21:57;21.98;;;14.23;;
38937;SDS011;24727;51.974;20.868;2023-04-10T00:24:23;22.90;;;15.13;;
38937;SDS011;24727;51.974;20.868;2023-04-10T00:26:49;24.42;;;16.55;;
38937;SDS011;24727;51.974;20.868;2023-04-10T00:29:16;21.67;;;13.05;;
38937;SDS011;24727;51.974;20.868;2023-04-10T00:31:43;20.13;;;12.77;;
38937;SDS011;24727;51.974;20.868;2023-04-10T00:34:10;20.52;;;13.30;;
38937;SDS011;24727;51.974;20.868;2023-04-10T00:36:38;22.80;;;14.27;;
38937;SDS011;24727;51.974;20.868;2023-04-10T00:39:04;17.85;;;12.45;;
38937;SDS011;24727;51.974;20.868;2023-04-10T00:41:30;17.67;;;11.70;;
38937;SDS011;24727;51.974;20.868;2023-04-10T00:43:56;18.30;;;11.35;;
38937;SDS011;24727;51.974;20.868;2023-04-10T00:46:25;17.17;;;11.88;;
38937;SDS011;24727;51.974;20.868;2023-04-10T00:48:52;16.27;;;11.00;;
38937;SDS011;24727;51.974;20.868;2023-04-10T00:51:20;16.13;;;11.40;;
38937;SDS011;24727;51.974;20.868;2023-04-10T00:53:50;17.25;;;10.95;;
38937;SDS011;24727;51.974;20.868;2023-04-10T00:56:17;13.70;;;9.93;;
38937;SDS011;24727;51.974;20.868;2023-04-10T00:58:43;26.88;;;12.15;;
38937;SDS011;24727;51.974;20.868;2023-04-10T01:01:09;83.50;;;11.52;;
38937;SDS011;24727;51.974;20.868;2023-04-10T01:03:36;43.13;;;12.57;;
38937;SDS011;24727;51.974;20.868;2023-04-10T01:06:15;20.00;;;12.57;;
38937;SDS011;24727;51.974;20.868;2023-04-10T01:23:11;17.35;;;10.85;;
38937;SDS011;24727;51.974;20.868;2023-04-10T01:28:23;18.05;;;12.60;;
38937;SDS011;24727;51.974;20.868;2023-04-10T01:31:10;17.85;;;10.45;;
38937;SDS011;24727;51.974;20.868;2023-04-10T01:33:48;24.58;;;11.38;;
38937;SDS011;24727;51.974;20.868;2023-04-10T01:36:21;49.05;;;11.93;;
38937;SDS011;24727;51.974;20.868;2023-04-10T01:38:52;56.42;;;11.65;;
38937;SDS011;24727;51.974;20.868;2023-04-10T01:41:21;29.05;;;12.65;;
38937;SDS011;24727;51.974;20.868;2023-04-10T01:43:48;60.85;;;13.52;;
38937;SDS011;24727;51.974;20.868;2023-04-10T01:46:16;21.60;;;11.52;;
38937;SDS011;24727;51.974;20.868;2023-04-10T01:48:45;22.80;;;12.95;;
38937;SDS011;24727;51.974;20.868;2023-04-10T01:51:11;30.23;;;12.25;;
38937;SDS011;24727;51.974;20.868;2023-04-10T01:53:39;32.50;;;13.02;;
38937;SDS011;24727;51.974;20.868;2023-04-10T01:56:08;16.17;;;11.13;;
38937;SDS011;24727;51.974;20.868;2023-04-10T01:58:34;19.02;;;10.98;;
38937;SDS011;24727;51.974;20.868;2023-04-10T02:01:01;34.75;;;12.35;;
38937;SDS011;24727;51.974;20.868;2023-04-10T02:03:27;26.55;;;11.52;;
38937;SDS011;24727;51.974;20.868;2023-04-10T02:06:03;47.25;;;12.00;;
38937;SDS011;24727;51.974;20.868;2023-04-10T02:08:56;82.00;;;14.82;;
38937;SDS011;24727;51.974;20.868;2023-04-10T02:14:22;19.23;;;9.93;;
38937;SDS011;24727;51.974;20.868;2023-04-10T02:16:54;27.15;;;11.95;;
38937;SDS011;24727;51.974;20.868;2023-04-10T02:19:24;20.52;;;12.75;;
38937;SDS011;24727;51.974;20.868;2023-04-10T02:21:52;20.33;;;11.43;;
38937;SDS011;24727;51.974;20.868;2023-04-10T02:24:20;25.17;;;12.70;;
38937;SDS011;24727;51.974;20.868;2023-04-10T02:26:53;52.63;;;15.32;;
38937;SDS011;24727;51.974;20.868;2023-04-10T02:31:45;16.20;;;10.40;;
38937;SDS011;24727;51.974;20.868;2023-04-10T02:34:12;23.60;;;13.48;;
38937;SDS011;24727;51.974;20.868;2023-04-10T02:36:38;27.45;;;12.25;;
38937;SDS011;24727;51.974;20.868;2023-04-10T02:39:05;42.63;;;12.63;;
38937;SDS011;24727;51.974;20.868;2023-04-10T02:41:32;19.10;;;12.50;;
38937;SDS011;24727;51.974;20.868;2023-04-10T02:43:58;48.67;;;12.20;;
38937;SDS011;24727;51.974;20.868;2023-04-10T02:46:24;21.17;;;10.10;;
38937;SDS011;24727;51.974;20.868;2023-04-10T02:48:51;40.05;;;12.60;;
38937;SDS011;24727;51.974;20.868;2023-04-10T02:51:18;15.35;;;11.35;;
38937;SDS011;24727;51.974;20.868;2023-04-10T02:53:43;20.98;;;11.77;;
38937;SDS011;24727;51.974;20.868;2023-04-10T02:56:11;16.52;;;11.48;;
38937;SDS011;24727;51.974;20.868;2023-04-10T02:58:38;20.95;;;12.43;;
38937;SDS011;24727;51.974;20.868;2023-04-10T03:01:05;18.40;;;10.68;;
38937;SDS011;24727;51.974;20.868;2023-04-10T03:03:31;18.85;;;12.52;;
38937;SDS011;24727;51.974;20.868;2023-04-10T03:05:57;162.52;;;16.70;;
38937;SDS011;24727;51.974;20.868;2023-04-10T03:08:29;169.23;;;15.82;;
38937;SDS011;24727;51.974;20.868;2023-04-10T03:10:55;21.02;;;9.88;;
38937;SDS011;24727;51.974;20.868;2023-04-10T03:13:21;35.28;;;11.32;;
38937;SDS011;24727;51.974;20.868;2023-04-10T03:15:50;15.93;;;10.23;;
38937;SDS011;24727;51.974;20.868;2023-04-10T03:18:16;55.88;;;13.05;;
38937;SDS011;24727;51.974;20.868;2023-04-10T03:20:42;196.45;;;19.13;;
38937;SDS011;24727;51.974;20.868;2023-04-10T03:23:08;234.25;;;21.65;;
38937;SDS011;24727;51.974;20.868;2023-04-10T03:25:34;73.32;;;13.73;;
38937;SDS011;24727;51.974;20.868;2023-04-10T03:28:01;16.45;;;9.73;;
38937;SDS011;24727;51.974;20.868;2023-04-10T03:30:27;20.75;;;10.50;;
38937;SDS011;24727;51.974;20.868;2023-04-10T03:32:56;13.82;;;9.32;;
38937;SDS011;24727;51.974;20.868;2023-04-10T03:35:24;14.32;;;9.77;;
38937;SDS011;24727;51.974;20.868;2023-04-10T03:37:50;14.63;;;10.13;;
38937;SDS011;24727;51.974;20.868;2023-04-10T03:40:15;15.35;;;10.45;;
38937;SDS011;24727;51.974;20.868;2023-04-10T03:42:41;14.75;;;10.45;;
38937;SDS011;24727;51.974;20.868;2023-04-10T03:45:08;16.15;;;9.88;;
38937;SDS011;24727;51.974;20.868;2023-04-10T03:47:35;23.23;;;12.40;;
38937;SDS011;24727;51.974;20.868;2023-04-10T03:50:01;15.00;;;10.95;;
38937;SDS011;24727;51.974;20.868;2023-04-10T03:52:27;12.93;;;9.35;;
38937;SDS011;24727;51.974;20.868;2023-04-10T03:54:53;15.27;;;9.88;;
38937;SDS011;24727;51.974;20.868;2023-04-10T03:57:19;40.40;;;10.65;;
38937;SDS011;24727;51.974;20.868;2023-04-10T03:59:46;140.57;;;16.73;;
38937;SDS011;24727;51.974;20.868;2023-04-10T04:02:12;389.38;;;26.20;;
38937;SDS011;24727;51.974;20.868;2023-04-10T04:04:39;125.57;;;14.88;;
38937;SDS011;24727;51.974;20.868;2023-04-10T04:07:05;436.67;;;28.33;;
38937;SDS011;24727;51.974;20.868;2023-04-10T04:09:32;350.38;;;23.88;;
38937;SDS011;24727;51.974;20.868;2023-04-10T04:11:59;224.10;;;19.30;;
38937;SDS011;24727;51.974;20.868;2023-04-10T04:14:25;182.65;;;18.90;;
38937;SDS011;24727;51.974;20.868;2023-04-10T04:16:51;271.67;;;22.35;;
38937;SDS011;24727;51.974;20.868;2023-04-10T04:19:17;218.30;;;21.75;;
38937;SDS011;24727;51.974;20.868;2023-04-10T04:21:44;259.88;;;23.70;;
38937;SDS011;24727;51.974;20.868;2023-04-10T04:24:10;182.77;;;23.27;;
38937;SDS011;24727;51.974;20.868;2023-04-10T04:26:36;171.60;;;21.83;;
38937;SDS011;24727;51.974;20.868;2023-04-10T04:29:02;166.50;;;20.52;;
38937;SDS011;24727;51.974;20.868;2023-04-10T04:31:28;149.00;;;21.60;;
38937;SDS011;24727;51.974;20.868;2023-04-10T04:33:59;160.05;;;21.73;;
38937;SDS011;24727;51.974;20.868;2023-04-10T04:36:26;97.13;;;18.70;;
38937;SDS011;24727;51.974;20.868;2023-04-10T04:38:52;99.43;;;20.98;;
38937;SDS011;24727;51.974;20.868;2023-04-10T04:41:19;66.15;;;18.92;;
38937;SDS011;24727;51.974;20.868;2023-04-10T04:43:46;68.47;;;18.83;;
38937;SDS011;24727;51.974;20.868;2023-04-10T04:46:15;58.85;;;19.33;;
38937;SDS011;24727;51.974;20.868;2023-04-10T04:48:41;43.00;;;19.52;;
38937;SDS011;24727;51.974;20.868;2023-04-10T04:51:07;41.35;;;19.48;;
38937;SDS011;24727;51.974;20.868;2023-04-10T04:53:33;34.75;;;19.90;;
38937;SDS011;24727;51.974;20.868;2023-04-10T04:56:01;36.35;;;19.73;;
38937;SDS011;24727;51.974;20.868;2023-04-10T04:58:27;42.22;;;22.35;;
38937;SDS011;24727;51.974;20.868;2023-04-10T05:00:54;38.63;;;22.48;;
38937;SDS011;24727;51.974;20.868;2023-04-10T05:03:20;48.33;;;25.23;;
38937;SDS011;24727;51.974;20.868;2023-04-10T05:05:46;49.47;;;25.65;;
38937;SDS011;24727;51.974;20.868;2023-04-10T05:08:12;54.47;;;25.67;;
38937;SDS011;24727;51.974;20.868;2023-04-10T05:10:38;55.08;;;27.58;;
38937;SDS011;24727;51.974;20.868;2023-04-10T05:13:04;49.33;;;26.90;;
38937;SDS011;24727;51.974;20.868;2023-04-10T05:15:30;49.33;;;27.42;;
38937;SDS011;24727;51.974;20.868;2023-04-10T05:17:56;49.88;;;25.13;;
38937;SDS011;24727;51.974;20.868;2023-04-10T05:20:22;53.28;;;26.65;;
38937;SDS011;24727;51.974;20.868;2023-04-10T05:22:49;47.05;;;25.33;;
38937;SDS011;24727;51.974;20.868;2023-04-10T05:25:17;49.22;;;26.15;;
38937;SDS011;24727;51.974;20.868;2023-04-10T05:27:45;46.28;;;24.80;;
38937;SDS011;24727;51.974;20.868;2023-04-10T05:30:10;44.80;;;23.75;;
38937;SDS011;24727;51.974;20.868;2023-04-10T05:32:38;46.05;;;23.13;;
38937;SDS011;24727;51.974;20.868;2023-04-10T05:35:04;43.33;;;24.27;;
38937;SDS011;24727;51.974;20.868;2023-04-10T05:37:32;40.72;;;23.00;;
38937;SDS011;24727;51.974;20.868;2023-04-10T05:39:58;39.90;;;22.45;;
38937;SDS011;24727;51.974;20.868;2023-04-10T05:42:25;36.20;;;21.38;;
38937;SDS011;24727;51.974;20.868;2023-04-10T05:44:52;37.40;;;20.85;;
38937;SDS011;24727;51.974;20.868;2023-04-10T05:47:18;34.97;;;19.20;;
38937;SDS011;24727;51.974;20.868;2023-04-10T05:49:44;31.77;;;19.40;;
38937;SDS011;24727;51.974;20.868;2023-04-10T05:52:11;29.05;;;18.25;;
38937;SDS011;24727;51.974;20.868;2023-04-10T05:54:38;31.70;;;18.13;;
38937;SDS011;24727;51.974;20.868;2023-04-10T05:57:04;29.30;;;18.05;;
38937;SDS011;24727;51.974;20.868;2023-04-10T05:59:31;24.02;;;16.77;;
38937;SDS011;24727;51.974;20.868;2023-04-10T06:01:57;25.13;;;15.70;;
38937;SDS011;24727;51.974;20.868;2023-04-10T06:04:23;25.63;;;15.30;;
38937;SDS011;24727;51.974;20.868;2023-04-10T06:06:50;22.13;;;15.07;;
38937;SDS011;24727;51.974;20.868;2023-04-10T06:09:16;21.48;;;14.13;;
38937;SDS011;24727;51.974;20.868;2023-04-10T06:11:42;19.33;;;13.40;;
38937;SDS011;24727;51.974;20.868;2023-04-10T06:14:08;18.50;;;12.63;;
38937;SDS011;24727;51.974;20.868;2023-04-10T06:16:35;18.98;;;12.70;;
38937;SDS011;24727;51.974;20.868;2023-04-10T06:19:01;18.67;;;11.23;;
38937;SDS011;24727;51.974;20.868;2023-04-10T06:21:28;19.25;;;13.25;;
38937;SDS011;24727;51.974;20.868;2023-04-10T06:23:55;22.25;;;13.20;;
38937;SDS011;24727;51.974;20.868;2023-04-10T06:26:21;17.67;;;12.75;;
38937;SDS011;24727;51.974;20.868;2023-04-10T06:28:48;15.55;;;11.75;;
38937;SDS011;24727;51.974;20.868;2023-04-10T06:31:16;18.98;;;13.38;;
38937;SDS011;24727;51.974;20.868;2023-04-10T06:33:44;22.85;;;13.98;;
38937;SDS011;24727;51.974;20.868;2023-04-10T06:36:11;20.77;;;13.57;;
38937;SDS011;24727;51.974;20.868;2023-04-10T06:38:37;14.00;;;9.50;;
38937;SDS011;24727;51.974;20.868;2023-04-10T06:41:04;19.15;;;12.50;;
38937;SDS011;24727;51.974;20.868;2023-04-10T06:43:34;17.52;;;12.10;;
38937;SDS011;24727;51.974;20.868;2023-04-10T06:46:03;15.02;;;9.75;;
38937;SDS011;24727;51.974;20.868;2023-04-10T06:48:30;20.42;;;12.55;;
38937;SDS011;24727;51.974;20.868;2023-04-10T06:50:57;18.55;;;11.48;;
38937;SDS011;24727;51.974;20.868;2023-04-10T06:53:25;15.07;;;11.38;;
38937;SDS011;24727;51.974;20.868;2023-04-10T06:55:51;14.18;;;11.13;;
38937;SDS011;24727;51.974;20.868;2023-04-10T06:58:19;16.17;;;11.40;;
38937;SDS011;24727;51.974;20.868;2023-04-10T07:00:45;14.82;;;10.38;;
38937;SDS011;24727;51.974;20.868;2023-04-10T07:03:11;18.23;;;11.60;;
38937;SDS011;24727;51.974;20.868;2023-04-10T07:05:37;14.75;;;10.52;;
38937;SDS011;24727;51.974;20.868;2023-04-10T07:08:05;17.25;;;9.23;;
38937;SDS011;24727;51.974;20.868;2023-04-10T07:10:31;15.25;;;10.45;;
38937;SDS011;24727;51.974;20.868;2023-04-10T07:12:58;16.58;;;9.38;;
38937;SDS011;24727;51.974;20.868;2023-04-10T07:15:24;13.20;;;9.20;;
38937;SDS011;24727;51.974;20.868;2023-04-10T07:17:50;14.50;;;9.38;;
38937;SDS011;24727;51.974;20.868;2023-04-10T07:20:16;14.95;;;10.85;;
38937;SDS011;24727;51.974;20.868;2023-04-10T07:22:43;15.18;;;10.63;;
38937;SDS011;24727;51.974;20.868;2023-04-10T07:25:09;15.75;;;11.48;;
38937;SDS011;24727;51.974;20.868;2023-04-10T07:27:36;17.00;;;10.10;;
38937;SDS011;24727;51.974;20.868;2023-04-10T07:30:02;17.63;;;10.23;;
38937;SDS011;24727;51.974;20.868;2023-04-10T07:32:28;15.75;;;9.27;;
38937;SDS011;24727;51.974;20.868;2023-04-10T07:34:54;16.63;;;9.45;;
38937;SDS011;24727;51.974;20.868;2023-04-10T07:37:20;13.77;;;10.02;;
38937;SDS011;24727;51.974;20.868;2023-04-10T07:39:46;13.45;;;9.82;;
38937;SDS011;24727;51.974;20.868;2023-04-10T07:42:13;15.35;;;10.27;;
38937;SDS011;24727;51.974;20.868;2023-04-10T07:44:39;13.85;;;9.70;;
38937;SDS011;24727;51.974;20.868;2023-04-10T07:47:06;15.75;;;9.80;;
38937;SDS011;24727;51.974;20.868;2023-04-10T07:49:32;14.02;;;9.57;;
38937;SDS011;24727;51.974;20.868;2023-04-10T07:51:58;11.45;;;8.73;;
38937;SDS011;24727;51.974;20.868;2023-04-10T07:54:25;11.80;;;8.45;;
38937;SDS011;24727;51.974;20.868;2023-04-10T07:56:52;15.15;;;9.38;;
38937;SDS011;24727;51.974;20.868;2023-04-10T07:59:18;9.15;;;7.30;;
38937;SDS011;24727;51.974;20.868;2023-04-10T08:01:45;11.65;;;9.38;;
38937;SDS011;24727;51.974;20.868;2023-04-10T08:04:11;13.75;;;8.48;;
38937;SDS011;24727;51.974;20.868;2023-04-10T08:06:37;12.98;;;8.25;;
38937;SDS011;24727;51.974;20.868;2023-04-10T08:09:04;11.45;;;8.43;;
38937;SDS011;24727;51.974;20.868;2023-04-10T08:11:32;10.55;;;8.02;;
38937;SDS011;24727;51.974;20.868;2023-04-10T08:14:00;11.40;;;6.78;;
38937;SDS011;24727;51.974;20.868;2023-04-10T08:16:30;7.07;;;5.55;;
38937;SDS011;24727;51.974;20.868;2023-04-10T08:18:58;8.15;;;5.50;;
38937;SDS011;24727;51.974;20.868;2023-04-10T08:21:26;6.95;;;5.47;;
38937;SDS011;24727;51.974;20.868;2023-04-10T08:23:55;7.70;;;5.50;;
38937;SDS011;24727;51.974;20.868;2023-04-10T08:26:23;7.93;;;5.75;;
38937;SDS011;24727;51.974;20.868;2023-04-10T08:28:51;8.20;;;5.53;;
38937;SDS011;24727;51.974;20.868;2023-04-10T08:31:21;5.90;;;5.07;;
38937;SDS011;24727;51.974;20.868;2023-04-10T08:33:50;8.20;;;5.10;;
38937;SDS011;24727;51.974;20.868;2023-04-10T08:36:16;6.60;;;5.00;;
38937;SDS011;24727;51.974;20.868;2023-04-10T08:38:43;7.80;;;5.50;;
38937;SDS011;24727;51.974;20.868;2023-04-10T08:41:11;6.43;;;5.10;;
38937;SDS011;24727;51.974;20.868;2023-04-10T08:43:38;7.50;;;4.97;;
38937;SDS011;24727;51.974;20.868;2023-04-10T08:46:05;6.55;;;5.10;;
38937;SDS011;24727;51.974;20.868;2023-04-10T08:48:34;6.25;;;4.90;;
38937;SDS011;24727;51.974;20.868;2023-04-10T08:51:06;9.43;;;5.85;;
38937;SDS011;24727;51.974;20.868;2023-04-10T08:53:39;6.57;;;4.70;;
38937;SDS011;24727;51.974;20.868;2023-04-10T08:56:08;5.10;;;4.18;;
38937;SDS011;24727;51.974;20.868;2023-04-10T08:58:40;9.77;;;4.80;;
38937;SDS011;24727;51.974;20.868;2023-04-10T09:01:08;6.38;;;4.80;;
38937;SDS011;24727;51.974;20.868;2023-04-10T09:03:38;5.65;;;4.45;;
38937;SDS011;24727;51.974;20.868;2023-04-10T09:06:04;6.32;;;4.72;;
38937;SDS011;24727;51.974;20.868;2023-04-10T09:08:35;8.00;;;3.97;;
38937;SDS011;24727;51.974;20.868;2023-04-10T09:11:04;6.10;;;3.58;;
38937;SDS011;24727;51.974;20.868;2023-04-10T09:13:44;5.65;;;4.50;;
38937;SDS011;24727;51.974;20.868;2023-04-10T09:16:12;5.75;;;3.92;;
38937;SDS011;24727;51.974;20.868;2023-04-10T09:21:19;7.22;;;4.05;;
38937;SDS011;24727;51.974;20.868;2023-04-10T09:23:47;4.47;;;3.78;;
38937;SDS011;24727;51.974;20.868;2023-04-10T09:26:27;6.13;;;2.75;;
38937;SDS011;24727;51.974;20.868;2023-04-10T09:29:01;6.05;;;3.55;;
38937;SDS011;24727;51.974;20.868;2023-04-10T09:31:36;11.48;;;4.20;;
38937;SDS011;24727;51.974;20.868;2023-04-10T09:34:10;3.92;;;2.88;;
38937;SDS011;24727;51.974;20.868;2023-04-10T09:36:52;4.72;;;2.67;;
38937;SDS011;24727;51.974;20.868;2023-04-10T09:42:29;4.13;;;2.70;;
38937;SDS011;24727;51.974;20.868;2023-04-10T09:44:59;4.45;;;2.92;;
38937;SDS011;24727;51.974;20.868;2023-04-10T09:47:26;3.83;;;2.30;;
38937;SDS011;24727;51.974;20.868;2023-04-10T09:49:53;3.40;;;2.05;;
38937;SDS011;24727;51.974;20.868;2023-04-10T09:52:25;2.60;;;1.80;;
38937;SDS011;24727;51.974;20.868;2023-04-10T09:55:15;5.30;;;1.92;;
38937;SDS011;24727;51.974;20.868;2023-04-10T09:57:42;4.03;;;2.15;;
38937;SDS011;24727;51.974;20.868;2023-04-10T10:00:09;2.90;;;1.83;;
38937;SDS011;24727;51.974;20.868;2023-04-10T10:02:38;7.60;;;2.33;;
38937;SDS011;24727;51.974;20.868;2023-04-10T10:05:05;4.35;;;2.70;;
38937;SDS011;24727;51.974;20.868;2023-04-10T10:07:32;4.30;;;2.45;;
38937;SDS011;24727;51.974;20.868;2023-04-10T10:10:02;4.95;;;2.72;;
38937;SDS011;24727;51.974;20.868;2023-04-10T10:12:33;4.88;;;3.05;;
38937;SDS011;24727;51.974;20.868;2023-04-10T10:15:22;4.50;;;2.80;;
38937;SDS011;24727;51.974;20.868;2023-04-10T10:18:03;5.35;;;2.70;;
38937;SDS011;24727;51.974;20.868;2023-04-10T10:20:34;5.13;;;2.67;;
38937;SDS011;24727;51.974;20.868;2023-04-10T10:23:05;3.47;;;3.05;;
38937;SDS011;24727;51.974;20.868;2023-04-10T10:25:35;8.02;;;3.20;;
38937;SDS011;24727;51.974;20.868;2023-04-10T10:28:02;4.32;;;3.00;;
38937;SDS011;24727;51.974;20.868;2023-04-10T10:30:33;5.50;;;2.95;;
38937;SDS011;24727;51.974;20.868;2023-04-10T10:33:04;4.75;;;2.90;;
38937;SDS011;24727;51.974;20.868;2023-04-10T10:35:35;4.07;;;2.53;;
38937;SDS011;24727;51.974;20.868;2023-04-10T10:38:04;2.30;;;2.10;;
38937;SDS011;24727;51.974;20.868;2023-04-10T10:45:59;6.07;;;3.70;;
38937;SDS011;24727;51.974;20.868;2023-04-10T10:48:30;5.45;;;3.35;;
38937;SDS011;24727;51.974;20.868;2023-04-10T10:50:57;5.65;;;3.33;;
38937;SDS011;24727;51.974;20.868;2023-04-10T10:53:31;4.20;;;3.03;;
38937;SDS011;24727;51.974;20.868;2023-04-10T10:58:46;4.88;;;2.60;;
38937;SDS011;24727;51.974;20.868;2023-04-10T11:01:14;5.72;;;3.22;;
38937;SDS011;24727;51.974;20.868;2023-04-10T11:03:41;5.03;;;3.55;;
38937;SDS011;24727;51.974;20.868;2023-04-10T11:06:13;4.45;;;2.60;;
38937;SDS011;24727;51.974;20.868;2023-04-10T11:08:48;3.00;;;2.67;;
38937;SDS011;24727;51.974;20.868;2023-04-10T11:16:23;8.10;;;2.85;;
38937;SDS011;24727;51.974;20.868;2023-04-10T11:19:09;6.07;;;3.00;;
38937;SDS011;24727;51.974;20.868;2023-04-10T11:25:12;6.90;;;3.67;;
38937;SDS011;24727;51.974;20.868;2023-04-10T11:27:41;6.40;;;2.63;;
38937;SDS011;24727;51.974;20.868;2023-04-10T11:32:55;3.67;;;2.95;;
38937;SDS011;24727;51.974;20.868;2023-04-10T11:35:24;4.40;;;2.90;;
38937;SDS011;24727;51.974;20.868;2023-04-10T11:37:54;4.38;;;2.97;;
38937;SDS011;24727;51.974;20.868;2023-04-10T11:40:33;4.25;;;3.42;;
38937;SDS011;24727;51.974;20.868;2023-04-10T11:45:48;8.25;;;2.83;;
38937;SDS011;24727;51.974;20.868;2023-04-10T11:48:08;5.95;;;2.70;;
38937;SDS011;24727;51.974;20.868;2023-04-10T11:50:34;5.80;;;2.90;;
38937;SDS011;24727;51.974;20.868;2023-04-10T11:53:01;6.35;;;3.03;;
38937;SDS011;24727;51.974;20.868;2023-04-10T11:55:37;6.05;;;3.40;;
38937;SDS011;24727;51.974;20.868;2023-04-10T11:58:03;4.47;;;3.03;;
38937;SDS011;24727;51.974;20.868;2023-04-10T12:00:54;4.78;;;2.55;;
38937;SDS011;24727;51.974;20.868;2023-04-10T12:03:37;6.28;;;2.70;;
38937;SDS011;24727;51.974;20.868;2023-04-10T12:06:12;3.60;;;2.70;;
38937;SDS011;24727;51.974;20.868;2023-04-10T12:08:43;3.95;;;2.58;;
38937;SDS011;24727;51.974;20.868;2023-04-10T12:11:18;5.15;;;2.60;;
38937;SDS011;24727;51.974;20.868;2023-04-10T12:13:47;5.47;;;2.67;;
38937;SDS011;24727;51.974;20.868;2023-04-10T12:16:18;4.82;;;2.80;;
38937;SDS011;24727;51.974;20.868;2023-04-10T12:18:44;4.18;;;2.83;;
38937;SDS011;24727;51.974;20.868;2023-04-10T12:21:10;3.88;;;2.88;;
38937;SDS011;24727;51.974;20.868;2023-04-10T12:23:38;3.42;;;2.92;;
38937;SDS011;24727;51.974;20.868;2023-04-10T12:26:11;5.18;;;2.80;;
38937;SDS011;24727;51.974;20.868;2023-04-10T12:28:39;3.70;;;2.72;;
38937;SDS011;24727;51.974;20.868;2023-04-10T12:31:08;4.13;;;2.95;;
38937;SDS011;24727;51.974;20.868;2023-04-10T12:33:35;3.63;;;3.03;;
38937;SDS011;24727;51.974;20.868;2023-04-10T12:36:02;5.90;;;2.78;;
38937;SDS011;24727;51.974;20.868;2023-04-10T12:38:36;5.93;;;3.13;;
38937;SDS011;24727;51.974;20.868;2023-04-10T12:41:07;3.83;;;2.47;;
38937;SDS011;24727;51.974;20.868;2023-04-10T12:43:36;4.60;;;2.53;;
38937;SDS011;24727;51.974;20.868;2023-04-10T12:46:04;4.90;;;2.78;;
38937;SDS011;24727;51.974;20.868;2023-04-10T12:48:32;4.95;;;3.42;;
38937;SDS011;24727;51.974;20.868;2023-04-10T12:50:58;7.20;;;3.30;;
38937;SDS011;24727;51.974;20.868;2023-04-10T12:53:25;3.72;;;3.33;;
38937;SDS011;24727;51.974;20.868;2023-04-10T12:56:00;7.68;;;2.95;;
38937;SDS011;24727;51.974;20.868;2023-04-10T12:58:31;4.18;;;2.80;;
38937;SDS011;24727;51.974;20.868;2023-04-10T13:01:00;2.85;;;2.55;;
38937;SDS011;24727;51.974;20.868;2023-04-10T13:03:34;5.40;;;3.25;;
38937;SDS011;24727;51.974;20.868;2023-04-10T13:06:01;7.70;;;3.65;;
38937;SDS011;24727;51.974;20.868;2023-04-10T13:08:30;3.60;;;3.05;;
38937;SDS011;24727;51.974;20.868;2023-04-10T13:11:01;4.78;;;2.90;;
38937;SDS011;24727;51.974;20.868;2023-04-10T13:13:30;4.72;;;3.40;;
38937;SDS011;24727;51.974;20.868;2023-04-10T13:15:57;4.90;;;2.72;;
38937;SDS011;24727;51.974;20.868;2023-04-10T13:18:24;4.43;;;3.13;;
38937;SDS011;24727;51.974;20.868;2023-04-10T13:20:50;4.22;;;3.40;;
38937;SDS011;24727;51.974;20.868;2023-04-10T13:23:16;4.47;;;3.50;;
38937;SDS011;24727;51.974;20.868;2023-04-10T13:25:42;7.60;;;3.25;;
38937;SDS011;24727;51.974;20.868;2023-04-10T13:28:08;5.65;;;3.30;;
38937;SDS011;24727;51.974;20.868;2023-04-10T13:30:39;5.07;;;3.03;;
38937;SDS011;24727;51.974;20.868;2023-04-10T13:33:07;4.25;;;3.03;;
38937;SDS011;24727;51.974;20.868;2023-04-10T13:35:33;5.18;;;2.97;;
38937;SDS011;24727;51.974;20.868;2023-04-10T13:38:00;6.43;;;3.30;;
38937;SDS011;24727;51.974;20.868;2023-04-10T13:40:26;5.05;;;2.97;;
38937;SDS011;24727;51.974;20.868;2023-04-10T13:42:52;3.70;;;3.10;;
38937;SDS011;24727;51.974;20.868;2023-04-10T13:45:19;4.25;;;2.78;;
38937;SDS011;24727;51.974;20.868;2023-04-10T13:47:45;4.72;;;3.60;;
38937;SDS011;24727;51.974;20.868;2023-04-10T13:50:12;3.97;;;3.58;;
38937;SDS011;24727;51.974;20.868;2023-04-10T13:52:38;5.93;;;3.20;;
38937;SDS011;24727;51.974;20.868;2023-04-10T13:55:04;4.68;;;3.00;;
38937;SDS011;24727;51.974;20.868;2023-04-10T13:57:31;4.28;;;2.95;;
38937;SDS011;24727;51.974;20.868;2023-04-10T13:59:58;5.65;;;3.53;;
38937;SDS011;24727;51.974;20.868;2023-04-10T14:02:25;5.93;;;3.10;;
38937;SDS011;24727;51.974;20.868;2023-04-10T14:04:51;4.40;;;3.20;;
38937;SDS011;24727;51.974;20.868;2023-04-10T14:07:17;4.75;;;2.92;;
38937;SDS011;24727;51.974;20.868;2023-04-10T14:09:44;3.65;;;3.10;;
38937;SDS011;24727;51.974;20.868;2023-04-10T14:12:12;6.45;;;3.40;;
38937;SDS011;24727;51.974;20.868;2023-04-10T14:14:43;3.90;;;3.25;;
38937;SDS011;24727;51.974;20.868;2023-04-10T14:17:11;5.03;;;3.40;;
38937;SDS011;24727;51.974;20.868;2023-04-10T14:19:37;5.15;;;3.22;;
38937;SDS011;24727;51.974;20.868;2023-04-10T14:22:04;8.70;;;3.47;;
38937;SDS011;24727;51.974;20.868;2023-04-10T14:24:30;4.70;;;3.25;;
38937;SDS011;24727;51.974;20.868;2023-04-10T14:26:57;5.30;;;3.30;;
38937;SDS011;24727;51.974;20.868;2023-04-10T14:29:25;6.25;;;3.10;;
38937;SDS011;24727;51.974;20.868;2023-04-10T14:31:52;3.55;;;3.25;;
38937;SDS011;24727;51.974;20.868;2023-04-10T14:34:19;4.95;;;3.22;;
38937;SDS011;24727;51.974;20.868;2023-04-10T14:36:45;4.55;;;4.00;;
38937;SDS011;24727;51.974;20.868;2023-04-10T14:39:11;6.32;;;3.63;;
38937;SDS011;24727;51.974;20.868;2023-04-10T14:41:37;7.70;;;4.18;;
38937;SDS011;24727;51.974;20.868;2023-04-10T14:44:03;5.82;;;4.20;;
38937;SDS011;24727;51.974;20.868;2023-04-10T14:46:30;6.85;;;3.42;;
38937;SDS011;24727;51.974;20.868;2023-04-10T14:48:56;4.32;;;3.00;;
38937;SDS011;24727;51.974;20.868;2023-04-10T14:51:22;5.25;;;3.00;;
38937;SDS011;24727;51.974;20.868;2023-04-10T14:53:49;3.22;;;2.92;;
38937;SDS011;24727;51.974;20.868;2023-04-10T14:56:15;3.50;;;2.92;;
38937;SDS011;24727;51.974;20.868;2023-04-10T14:58:42;5.25;;;3.10;;
38937;SDS011;24727;51.974;20.868;2023-04-10T15:01:10;5.78;;;2.90;;
38937;SDS011;24727;51.974;20.868;2023-04-10T15:03:38;3.40;;;2.50;;
38937;SDS011;24727;51.974;20.868;2023-04-10T15:06:04;7.30;;;2.92;;
38937;SDS011;24727;51.974;20.868;2023-04-10T15:08:31;3.22;;;2.58;;
38937;SDS011;24727;51.974;20.868;2023-04-10T15:10:57;5.55;;;2.65;;
38937;SDS011;24727;51.974;20.868;2023-04-10T15:13:24;3.63;;;3.08;;
38937;SDS011;24727;51.974;20.868;2023-04-10T15:15:50;7.95;;;2.70;;
38937;SDS011;24727;51.974;20.868;2023-04-10T15:18:16;3.28;;;2.50;;